Terminal Aerodrome Forecast
Issued by NWS Memphis, TN

Home | Current Version | Previous Version | Text Only | Print | Product List | Glossary On
Versions: 1 2 3 4 5 6 7 8 9 10 11 12 13 14 15 16 17 18 19 20 21 22 23 24 25 26 27 28 29 30 31 32 33 34 35 36 37 38 39 40 41 42 43 44 45 46 47 48
000
FTUS44 KMEG 202337
TAFMEM
TAF
KMEM 202337Z 2100/2206 32010G15KT P6SM -RA OVC050
      TEMPO 2101/2103 5SM -RA OVC020
     FM210300 26005KT P6SM SCT060
     FM211200 28005KT P6SM SCT120
     FM211500 33010KT P6SM SKC
     FM220000 03004KT P6SM SKC=

USA.gov is the U.S. government's official web portal to all federal, state and local government web resources and services.